createdAt,value
2018-09-06T00:00:13.239Z,17.23
2018-09-06T00:01:13.169Z,17.21
2018-09-06T00:02:13.091Z,17.18
2018-09-06T00:03:13.017Z,17.23
2018-09-06T00:04:12.944Z,17.14
2018-09-06T00:05:12.870Z,17.15
2018-09-06T00:06:12.795Z,17.14
2018-09-06T00:07:12.722Z,17.21
2018-09-06T00:08:12.648Z,17.07
2018-09-06T00:09:12.575Z,17.23
2018-09-06T00:10:12.503Z,17.13
2018-09-06T00:11:12.426Z,17.13
2018-09-06T00:12:12.352Z,17.07
2018-09-06T00:13:12.281Z,17.00
2018-09-06T00:14:12.204Z,16.96
2018-09-06T00:15:12.130Z,16.89
2018-09-06T00:16:12.056Z,16.92
2018-09-06T00:17:11.983Z,17.02
2018-09-06T00:18:11.909Z,17.03
2018-09-06T00:19:11.835Z,17.13
2018-09-06T00:20:11.761Z,17.02
2018-09-06T00:21:11.838Z,17.00
2018-09-06T00:22:11.623Z,16.92
2018-09-06T00:23:11.539Z,17.05
2018-09-06T00:24:11.465Z,17.00
2018-09-06T00:25:11.391Z,17.07
2018-09-06T00:26:11.316Z,16.99
2018-09-06T00:27:11.244Z,17.03
2018-09-06T00:28:11.169Z,17.03
2018-09-06T00:29:11.098Z,17.00
2018-09-06T00:30:11.021Z,17.11
2018-09-06T00:31:10.952Z,17.10
2018-09-06T00:32:10.874Z,17.10
2018-09-06T00:33:10.799Z,17.23
2018-09-06T00:34:10.729Z,17.15
2018-09-06T00:35:10.652Z,17.21
2018-09-06T00:36:10.582Z,17.18
2018-09-06T00:37:10.505Z,17.26
2018-09-06T00:38:10.430Z,17.17
2018-09-06T00:39:10.357Z,17.18
2018-09-06T00:40:10.284Z,17.18
2018-09-06T00:41:10.257Z,17.20
2018-09-06T00:42:10.134Z,17.25
2018-09-06T00:43:10.061Z,17.25
2018-09-06T00:44:09.988Z,17.08
2018-09-06T00:45:09.913Z,17.17
2018-09-06T00:46:09.839Z,17.18
2018-09-06T00:47:09.769Z,17.26
2018-09-06T00:48:09.695Z,17.25
2018-09-06T00:49:09.617Z,17.17
2018-09-06T00:50:09.543Z,17.26
2018-09-06T00:51:09.470Z,17.33
2018-09-06T00:52:09.398Z,17.33
2018-09-06T00:53:09.324Z,17.28
2018-09-06T00:54:09.249Z,17.18
2018-09-06T00:55:09.173Z,17.32
2018-09-06T00:56:09.100Z,17.28
2018-09-06T00:57:09.029Z,17.32
2018-09-06T00:58:08.953Z,17.23
2018-09-06T00:59:08.883Z,17.14
2018-09-06T01:00:08.806Z,17.29
2018-09-06T01:01:08.732Z,17.13
2018-09-06T01:02:08.659Z,17.08
2018-09-06T01:03:08.584Z,17.13
2018-09-06T01:04:08.510Z,17.17
2018-09-06T01:05:08.437Z,17.17
2018-09-06T01:06:08.362Z,17.11
2018-09-06T01:07:08.290Z,17.20
2018-09-06T01:08:08.217Z,17.11
2018-09-06T01:09:08.143Z,17.25
2018-09-06T01:10:08.067Z,17.17
2018-09-06T01:11:07.995Z,17.21
2018-09-06T01:12:07.921Z,17.20
2018-09-06T01:13:07.847Z,17.20
2018-09-06T01:14:07.773Z,17.20
2018-09-06T01:15:07.698Z,17.17
2018-09-06T01:16:07.625Z,17.17
2018-09-06T01:17:07.552Z,17.18
2018-09-06T01:18:07.489Z,17.20
2018-09-06T01:19:07.404Z,17.21
2018-09-06T01:20:07.331Z,17.25
2018-09-06T01:21:07.257Z,17.17
2018-09-06T01:22:07.188Z,17.07
2018-09-06T01:23:07.108Z,17.03
2018-09-06T01:24:07.035Z,17.18
2018-09-06T01:25:06.963Z,17.07
2018-09-06T01:26:06.888Z,17.21
2018-09-06T01:27:06.815Z,17.17
2018-09-06T01:28:07.540Z,17.14
2018-09-06T01:29:06.666Z,17.23
2018-09-06T01:30:06.591Z,17.11
2018-09-06T01:31:06.518Z,17.11
2018-09-06T01:32:06.445Z,17.03
2018-09-06T01:33:06.371Z,17.03
2018-09-06T01:34:06.296Z,17.10
2018-09-06T01:35:06.223Z,17.10
2018-09-06T01:36:06.149Z,17.08
2018-09-06T01:37:06.076Z,17.03
2018-09-06T01:38:06.001Z,16.96
2018-09-06T01:39:05.928Z,16.95
2018-09-06T01:40:05.854Z,16.96
2018-09-06T01:41:05.782Z,16.95
2018-09-06T01:42:05.706Z,16.96
2018-09-06T01:43:05.634Z,17.03
2018-09-06T01:44:05.559Z,17.02
2018-09-06T01:45:05.483Z,17.05
2018-09-06T01:46:05.410Z,17.08
2018-09-06T01:47:05.338Z,17.05
2018-09-06T01:48:05.267Z,17.13
2018-09-06T01:49:05.191Z,17.05
2018-09-06T01:50:05.115Z,17.08
2018-09-06T01:51:05.042Z,17.05
2018-09-06T01:52:04.968Z,17.10
2018-09-06T01:53:04.894Z,17.03
2018-09-06T01:54:04.818Z,16.93
2018-09-06T01:55:05.496Z,17.00
2018-09-06T01:56:04.672Z,17.02
2018-09-06T01:57:04.602Z,17.11
2018-09-06T01:58:04.525Z,17.08
2018-09-06T01:59:04.451Z,17.08
2018-09-06T02:00:04.380Z,17.17
2018-09-06T02:01:04.455Z,17.08
2018-09-06T02:02:04.229Z,16.98
2018-09-06T02:03:04.158Z,17.05
2018-09-06T02:04:04.081Z,17.05
2018-09-06T02:05:04.008Z,17.02
2018-09-06T02:06:03.935Z,17.05
2018-09-06T02:07:03.860Z,17.11
2018-09-06T02:08:03.788Z,17.17
2018-09-06T02:09:03.712Z,17.20
2018-09-06T02:10:03.669Z,17.14
2018-09-06T02:11:03.570Z,17.10
2018-09-06T02:12:03.491Z,17.03
2018-09-06T02:13:03.418Z,17.08
2018-09-06T02:14:03.342Z,17.03
2018-09-06T02:15:03.271Z,17.00
2018-09-06T02:16:03.196Z,16.96
2018-09-06T02:17:03.121Z,16.93
2018-09-06T02:18:03.047Z,16.95
2018-09-06T02:19:02.975Z,16.98
2018-09-06T02:20:02.900Z,16.96
2018-09-06T02:21:02.826Z,17.02
2018-09-06T02:22:02.751Z,16.95
2018-09-06T02:23:02.677Z,17.02
2018-09-06T02:24:02.604Z,17.08
2018-09-06T02:25:02.530Z,17.13
2018-09-06T02:26:02.456Z,17.21
2018-09-06T02:27:02.382Z,17.25
2018-09-06T02:28:02.308Z,17.26
2018-09-06T02:29:02.235Z,17.20
2018-09-06T02:30:02.160Z,17.28
2018-09-06T02:31:02.086Z,17.30
2018-09-06T02:32:02.012Z,17.40
2018-09-06T02:33:01.937Z,17.38
2018-09-06T02:34:01.864Z,17.38
2018-09-06T02:35:01.790Z,17.40
2018-09-06T02:36:01.716Z,17.50
2018-09-06T02:37:01.643Z,17.55
2018-09-06T02:38:01.567Z,17.48
2018-09-06T02:39:01.494Z,17.54
2018-09-06T02:40:01.420Z,17.51
2018-09-06T02:41:01.348Z,17.39
2018-09-06T02:42:01.272Z,17.38
2018-09-06T02:43:01.201Z,17.44
2018-09-06T02:44:01.123Z,17.28
2018-09-06T02:45:01.050Z,17.30
2018-09-06T02:46:00.981Z,17.32
2018-09-06T02:47:00.902Z,17.32
2018-09-06T02:48:00.827Z,17.40
2018-09-06T02:49:00.755Z,17.33
2018-09-06T02:50:00.679Z,17.33
2018-09-06T02:51:00.611Z,17.46
2018-09-06T02:52:00.533Z,17.44
2018-09-06T02:53:00.459Z,17.57
2018-09-06T02:54:00.482Z,17.60
2018-09-06T02:55:00.311Z,17.60
2018-09-06T02:56:00.237Z,17.67
2018-09-06T02:57:00.171Z,17.64
2018-09-06T02:58:00.090Z,17.77
2018-09-06T02:59:00.016Z,17.63
2018-09-06T02:59:59.943Z,17.58
2018-09-06T03:00:59.870Z,17.73
2018-09-06T03:01:59.795Z,17.69
2018-09-06T03:02:59.724Z,17.66
2018-09-06T03:03:59.648Z,17.51
2018-09-06T03:04:59.576Z,17.53
2018-09-06T03:05:59.500Z,17.38
2018-09-06T03:06:59.427Z,17.43
2018-09-06T03:07:59.354Z,17.47
2018-09-06T03:08:59.283Z,17.40
2018-09-06T03:09:59.210Z,17.43
2018-09-06T03:10:59.133Z,17.38
2018-09-06T03:11:59.060Z,17.44
2018-09-06T03:12:58.986Z,17.46
2018-09-06T03:13:58.917Z,17.44
2018-09-06T03:14:58.839Z,17.46
2018-09-06T03:15:58.765Z,17.40
2018-09-06T03:16:58.693Z,17.40
2018-09-06T03:17:58.619Z,17.29
2018-09-06T03:18:58.546Z,17.25
2018-09-06T03:19:58.472Z,17.30
2018-09-06T03:20:58.398Z,17.17
2018-09-06T03:21:58.326Z,17.11
2018-09-06T03:22:58.250Z,17.18
2018-09-06T03:23:58.178Z,17.08
2018-09-06T03:24:58.105Z,17.14
2018-09-06T03:25:58.029Z,17.10
2018-09-06T03:26:57.957Z,17.10
2018-09-06T03:27:57.884Z,17.08
2018-09-06T03:28:57.809Z,17.13
2018-09-06T03:29:57.735Z,17.08
2018-09-06T03:30:57.661Z,17.05
2018-09-06T03:31:57.594Z,17.10
2018-09-06T03:32:57.516Z,17.10
2018-09-06T03:33:57.441Z,17.11
2018-09-06T03:34:57.368Z,17.20
2018-09-06T03:35:57.370Z,17.15
2018-09-06T03:36:57.220Z,17.28
2018-09-06T03:37:57.145Z,17.35
2018-09-06T03:38:57.073Z,17.43
2018-09-06T03:39:57.001Z,17.53
2018-09-06T03:40:56.926Z,17.57
2018-09-06T03:41:56.851Z,17.71
2018-09-06T03:42:56.778Z,17.70
2018-09-06T03:43:56.705Z,17.67
2018-09-06T03:44:56.631Z,17.67
2018-09-06T03:45:56.560Z,17.67
2018-09-06T03:46:56.484Z,17.63
2018-09-06T03:47:56.411Z,17.71
2018-09-06T03:48:56.337Z,17.74
2018-09-06T03:49:56.268Z,17.55
2018-09-06T03:50:56.191Z,17.54
2018-09-06T03:51:56.116Z,17.39
2018-09-06T03:52:56.044Z,17.29
2018-09-06T03:53:55.971Z,17.28
2018-09-06T03:54:55.896Z,17.33
2018-09-06T03:55:55.823Z,17.32
2018-09-06T03:56:55.750Z,17.28
2018-09-06T03:57:55.676Z,17.29
2018-09-06T03:58:55.602Z,17.29
2018-09-06T03:59:55.529Z,17.40
2018-09-06T04:00:55.456Z,17.46
2018-09-06T04:01:55.380Z,17.44
2018-09-06T04:02:55.308Z,17.43
2018-09-06T04:03:55.233Z,17.51
2018-09-06T04:04:55.160Z,17.63
2018-09-06T04:05:55.087Z,17.58
2018-09-06T04:06:55.012Z,17.66
2018-09-06T04:07:54.941Z,17.54
2018-09-06T04:08:54.866Z,17.67
2018-09-06T04:09:54.792Z,17.71
2018-09-06T04:10:54.724Z,17.66
2018-09-06T04:11:54.646Z,17.73
2018-09-06T04:12:54.572Z,17.73
2018-09-06T04:13:54.497Z,17.77
2018-09-06T04:14:54.425Z,17.81
2018-09-06T04:15:54.351Z,17.76
2018-09-06T04:16:54.279Z,17.84
2018-09-06T04:17:54.204Z,17.73
2018-09-06T04:18:54.130Z,17.77
2018-09-06T04:19:54.056Z,17.71
2018-09-06T04:20:53.985Z,17.69
2018-09-06T04:21:53.914Z,17.69
2018-09-06T04:22:53.837Z,17.71
2018-09-06T04:23:53.766Z,17.74
2018-09-06T04:24:53.689Z,17.57
2018-09-06T04:25:53.614Z,17.57
2018-09-06T04:26:53.543Z,17.67
2018-09-06T04:27:53.470Z,17.60
2018-09-06T04:28:53.400Z,17.66
2018-09-06T04:29:53.321Z,17.66
2018-09-06T04:30:53.249Z,17.70
2018-09-06T04:31:53.175Z,17.54
2018-09-06T04:32:53.103Z,17.51
2018-09-06T04:33:53.030Z,17.38
2018-09-06T04:34:52.955Z,17.28
2018-09-06T04:35:52.880Z,17.21
2018-09-06T04:36:52.808Z,17.20
2018-09-06T04:37:52.738Z,17.23
2018-09-06T04:38:52.661Z,17.10
2018-09-06T04:39:52.587Z,16.98
2018-09-06T04:40:52.515Z,16.90
2018-09-06T04:41:52.439Z,16.96
2018-09-06T04:42:52.368Z,16.89
2018-09-06T04:43:52.380Z,16.95
2018-09-06T04:44:52.219Z,16.98
2018-09-06T04:45:52.144Z,17.07
2018-09-06T04:46:52.071Z,17.14
2018-09-06T04:47:51.997Z,17.11
2018-09-06T04:48:51.923Z,17.18
2018-09-06T04:49:51.862Z,17.26
2018-09-06T04:50:51.776Z,17.30
2018-09-06T04:51:51.708Z,17.33
2018-09-06T04:52:51.629Z,17.28
2018-09-06T04:53:51.555Z,17.30
2018-09-06T04:54:51.484Z,17.17
2018-09-06T04:55:51.408Z,17.26
2018-09-06T04:56:51.334Z,17.23
2018-09-06T04:57:51.259Z,17.15
2018-09-06T04:58:51.186Z,17.17
2018-09-06T04:59:51.112Z,17.10
2018-09-06T05:00:51.040Z,17.05
2018-09-06T05:01:50.964Z,17.02
2018-09-06T05:02:50.891Z,17.13
2018-09-06T05:03:50.816Z,17.10
2018-09-06T05:04:50.744Z,17.21
2018-09-06T05:05:50.669Z,17.25
2018-09-06T05:06:50.596Z,17.18
2018-09-06T05:07:50.521Z,17.20
2018-09-06T05:08:50.448Z,17.28
2018-09-06T05:09:50.373Z,17.35
2018-09-06T05:10:50.300Z,17.46
2018-09-06T05:11:50.227Z,17.54
2018-09-06T05:12:50.155Z,17.43
2018-09-06T05:13:50.082Z,17.51
2018-09-06T05:14:50.007Z,17.55
2018-09-06T05:15:49.933Z,17.51
2018-09-06T05:16:49.859Z,17.57
2018-09-06T05:17:49.786Z,17.51
2018-09-06T05:18:49.712Z,17.60
2018-09-06T05:19:49.641Z,17.70
2018-09-06T05:20:49.564Z,17.66
2018-09-06T05:21:49.501Z,17.73
2018-09-06T05:22:49.424Z,17.69
2018-09-06T05:23:49.346Z,17.67
2018-09-06T05:24:49.274Z,17.60
2018-09-06T05:25:49.198Z,17.57
2018-09-06T05:26:49.126Z,17.64
2018-09-06T05:27:49.054Z,17.46
2018-09-06T05:28:48.979Z,17.39
2018-09-06T05:29:48.904Z,17.32
2018-09-06T05:30:48.850Z,17.29
2018-09-06T05:31:48.765Z,17.36
2018-09-06T05:32:48.685Z,17.38
2018-09-06T05:33:48.611Z,17.46
2018-09-06T05:34:48.539Z,17.44
2018-09-06T05:35:48.465Z,17.50
2018-09-06T05:36:48.392Z,17.55
2018-09-06T05:37:48.318Z,17.57
2018-09-06T05:38:48.244Z,17.60
2018-09-06T05:39:48.171Z,17.60
2018-09-06T05:40:48.099Z,17.58
2018-09-06T05:41:48.024Z,17.66
2018-09-06T05:42:47.954Z,17.70
2018-09-06T05:43:47.878Z,17.67
2018-09-06T05:44:47.805Z,17.74
2018-09-06T05:45:47.731Z,17.70
2018-09-06T05:46:47.659Z,17.76
2018-09-06T05:47:47.585Z,17.77
2018-09-06T05:48:47.513Z,17.87
2018-09-06T05:49:47.438Z,17.88
2018-09-06T05:50:47.365Z,17.94
2018-09-06T05:51:47.292Z,18.02
2018-09-06T05:52:47.219Z,18.04
2018-09-06T05:53:47.146Z,18.10
2018-09-06T05:54:47.074Z,18.14
2018-09-06T05:55:47.000Z,18.18
2018-09-06T05:56:46.926Z,18.27
2018-09-06T05:57:46.852Z,18.29
2018-09-06T05:58:46.781Z,18.32
2018-09-06T05:59:46.716Z,18.46
2018-09-06T06:00:46.635Z,18.53
2018-09-06T06:01:46.560Z,18.49
2018-09-06T06:02:46.489Z,18.62
2018-09-06T06:03:46.418Z,18.53
2018-09-06T06:04:46.343Z,18.76
2018-09-06T06:05:46.271Z,18.79
2018-09-06T06:06:46.197Z,18.79
2018-09-06T06:07:46.125Z,18.82
2018-09-06T06:08:46.051Z,18.95
2018-09-06T06:09:45.978Z,18.94
2018-09-06T06:10:45.909Z,18.95
2018-09-06T06:11:45.843Z,18.92
2018-09-06T06:12:45.761Z,18.97
2018-09-06T06:13:45.688Z,18.95
2018-09-06T06:14:45.616Z,19.02
2018-09-06T06:15:45.543Z,19.13
2018-09-06T06:16:45.471Z,19.20
2018-09-06T06:17:45.397Z,19.13
2018-09-06T06:18:45.325Z,19.31
2018-09-06T06:19:45.255Z,19.35
2018-09-06T06:20:45.181Z,19.42
2018-09-06T06:21:45.108Z,19.48
2018-09-06T06:22:45.036Z,19.55
2018-09-06T06:23:44.964Z,19.65
2018-09-06T06:24:44.892Z,19.72
2018-09-06T06:25:44.821Z,19.68
2018-09-06T06:26:44.760Z,19.79
2018-09-06T06:27:44.675Z,19.78
2018-09-06T06:28:44.604Z,19.87
2018-09-06T06:29:44.531Z,19.93
2018-09-06T06:30:44.459Z,19.97
2018-09-06T06:31:44.387Z,20.00
2018-09-06T06:32:44.316Z,20.10
2018-09-06T06:33:44.245Z,20.13
2018-09-06T06:34:44.172Z,20.19
2018-09-06T06:35:44.100Z,20.18
2018-09-06T06:36:44.029Z,20.31
2018-09-06T06:37:43.955Z,20.27
2018-09-06T06:38:43.884Z,20.42
2018-09-06T06:39:43.822Z,20.47
2018-09-06T06:40:43.743Z,20.53
2018-09-06T06:41:43.670Z,20.56
2018-09-06T06:42:43.597Z,20.57
2018-09-06T06:43:43.526Z,20.66
2018-09-06T06:44:43.457Z,20.69
2018-09-06T06:45:43.387Z,20.79
2018-09-06T06:46:43.312Z,20.87
2018-09-06T06:47:43.240Z,20.83
2018-09-06T06:48:43.169Z,20.94
2018-09-06T06:49:43.097Z,20.94
2018-09-06T06:50:43.026Z,21.08
2018-09-06T06:51:42.956Z,20.98
2018-09-06T06:52:42.885Z,21.14
2018-09-06T06:53:42.813Z,21.12
2018-09-06T06:54:42.742Z,21.08
2018-09-06T06:55:42.672Z,21.16
2018-09-06T06:56:42.600Z,21.14
2018-09-06T06:57:42.529Z,21.11
2018-09-06T06:58:42.512Z,21.14
2018-09-06T06:59:42.386Z,21.17
2018-09-06T07:00:42.316Z,21.24
2018-09-06T07:01:42.245Z,21.19
2018-09-06T07:02:42.173Z,21.19
2018-09-06T07:03:42.106Z,21.19
2018-09-06T07:04:42.123Z,21.20
2018-09-06T07:05:41.963Z,21.26
2018-09-06T07:06:41.915Z,21.33
2018-09-06T07:07:41.821Z,21.31
2018-09-06T07:08:41.749Z,21.35
2018-09-06T07:09:41.677Z,21.31
2018-09-06T07:10:41.606Z,21.31
2018-09-06T07:11:41.536Z,21.33
2018-09-06T07:12:41.466Z,21.35
2018-09-06T07:13:41.394Z,21.36
2018-09-06T07:14:41.323Z,21.38
2018-09-06T07:15:41.252Z,21.53
2018-09-06T07:16:41.182Z,21.49
2018-09-06T07:17:41.110Z,21.59
2018-09-06T07:18:41.098Z,21.61
2018-09-06T07:19:40.971Z,21.66
2018-09-06T07:20:40.898Z,21.66
2018-09-06T07:21:40.827Z,21.74
2018-09-06T07:22:40.758Z,21.79
2018-09-06T07:23:40.686Z,21.86
2018-09-06T07:24:40.616Z,21.86
2018-09-06T07:25:40.545Z,21.85
2018-09-06T07:26:40.476Z,21.94
2018-09-06T07:27:40.402Z,21.94
2018-09-06T07:28:40.334Z,21.91
2018-09-06T07:29:40.265Z,21.85
2018-09-06T07:30:40.296Z,21.84
2018-09-06T07:31:40.120Z,22.00
2018-09-06T07:32:40.049Z,22.05
2018-09-06T07:33:39.979Z,22.00
2018-09-06T07:34:39.909Z,22.07
2018-09-06T07:35:39.836Z,22.05
2018-09-06T07:36:39.771Z,22.12
2018-09-06T07:37:39.695Z,22.19
2018-09-06T07:38:39.628Z,22.16
2018-09-06T07:39:39.554Z,22.10
2018-09-06T07:40:39.484Z,22.31
2018-09-06T07:41:39.412Z,22.26
2018-09-06T07:42:39.342Z,22.34
2018-09-06T07:43:39.270Z,22.50
2018-09-06T07:44:39.201Z,22.63
2018-09-06T07:45:39.128Z,22.60
2018-09-06T07:46:39.108Z,22.77
2018-09-06T07:47:38.990Z,22.89
2018-09-06T07:48:38.922Z,22.92
2018-09-06T07:49:38.846Z,23.05
2018-09-06T07:50:38.778Z,22.99
2018-09-06T07:51:38.706Z,23.07
2018-09-06T07:52:38.655Z,23.05
2018-09-06T07:53:38.566Z,23.05
2018-09-06T07:54:38.495Z,23.09
2018-09-06T07:55:38.426Z,23.02
2018-09-06T07:56:38.355Z,23.00
2018-09-06T07:57:38.285Z,23.05
2018-09-06T07:58:38.217Z,23.07
2018-09-06T07:59:38.148Z,23.05
2018-09-06T08:00:38.074Z,23.04
2018-09-06T08:01:38.063Z,23.04
2018-09-06T08:02:37.936Z,23.14
2018-09-06T08:03:37.863Z,23.02
2018-09-06T08:04:37.795Z,23.08
2018-09-06T08:05:37.724Z,23.07
2018-09-06T08:06:37.654Z,22.96
2018-09-06T08:07:37.584Z,22.89
2018-09-06T08:08:37.513Z,22.83
2018-09-06T08:09:37.442Z,22.96
2018-09-06T08:10:37.374Z,22.93
2018-09-06T08:11:37.303Z,22.97
2018-09-06T08:12:37.231Z,23.05
2018-09-06T08:13:37.163Z,23.09
2018-09-06T08:14:37.099Z,23.09
2018-09-06T08:15:37.025Z,23.14
2018-09-06T08:16:36.955Z,23.09
2018-09-06T08:17:36.880Z,23.17
2018-09-06T08:18:36.810Z,23.09
2018-09-06T08:19:36.741Z,23.22
2018-09-06T08:20:36.671Z,23.24
2018-09-06T08:21:36.600Z,23.26
2018-09-06T08:22:36.529Z,23.34
2018-09-06T08:23:36.460Z,23.38
2018-09-06T08:24:36.390Z,23.53
2018-09-06T08:25:36.319Z,23.56
2018-09-06T08:26:36.252Z,23.53
2018-09-06T08:27:36.180Z,23.63
2018-09-06T08:28:36.110Z,23.65
2018-09-06T08:29:36.039Z,23.63
2018-09-06T08:30:35.994Z,23.65
2018-09-06T08:31:35.900Z,23.72
2018-09-06T08:32:35.831Z,23.71
2018-09-06T08:33:35.762Z,23.80
2018-09-06T08:34:35.690Z,23.79
2018-09-06T08:35:35.620Z,23.78
2018-09-06T08:36:35.551Z,23.82
2018-09-06T08:37:35.479Z,23.80
2018-09-06T08:38:35.411Z,23.79
2018-09-06T08:39:35.341Z,23.83
2018-09-06T08:40:35.271Z,24.04
2018-09-06T08:41:35.201Z,24.02
2018-09-06T08:42:35.132Z,23.93
2018-09-06T08:43:35.063Z,23.86
2018-09-06T08:44:34.993Z,24.00
2018-09-06T08:45:34.921Z,24.02
2018-09-06T08:46:34.852Z,24.08
2018-09-06T08:47:34.795Z,24.17
2018-09-06T08:48:34.712Z,24.16
2018-09-06T08:49:34.642Z,24.20
2018-09-06T08:50:34.576Z,24.29
2018-09-06T08:51:34.503Z,24.30
2018-09-06T08:52:34.441Z,24.30
2018-09-06T08:53:34.364Z,24.26
2018-09-06T08:54:34.293Z,24.32
2018-09-06T08:55:34.228Z,24.38
2018-09-06T08:56:34.155Z,24.42
2018-09-06T08:57:34.088Z,24.47
2018-09-06T08:58:34.109Z,24.59
2018-09-06T08:59:33.951Z,24.79
2018-09-06T09:00:33.877Z,24.90
2018-09-06T09:01:33.807Z,25.04
2018-09-06T09:02:33.750Z,25.15
2018-09-06T09:03:33.669Z,25.01
2018-09-06T09:04:33.619Z,24.91
2018-09-06T09:05:33.530Z,24.91
2018-09-06T09:06:33.462Z,24.90
2018-09-06T09:07:33.439Z,24.75
2018-09-06T09:08:33.406Z,24.73
2018-09-06T09:09:33.256Z,24.75
2018-09-06T09:10:33.186Z,24.64
2018-09-06T09:11:33.116Z,24.44
2018-09-06T09:12:33.108Z,24.56
2018-09-06T09:13:32.977Z,24.59
2018-09-06T09:14:32.909Z,24.64
2018-09-06T09:15:32.840Z,24.75
2018-09-06T09:16:32.771Z,24.79
2018-09-06T09:17:32.702Z,24.79
2018-09-06T09:18:32.631Z,24.86
2018-09-06T09:19:32.561Z,25.02
2018-09-06T09:20:32.493Z,24.97
2018-09-06T09:21:32.437Z,24.97
2018-09-06T09:22:32.358Z,24.90
2018-09-06T09:23:32.285Z,24.75
2018-09-06T09:24:32.215Z,24.93
2018-09-06T09:25:32.213Z,24.93
2018-09-06T09:26:32.078Z,24.83
2018-09-06T09:27:32.010Z,24.76
2018-09-06T09:28:31.948Z,24.80
2018-09-06T09:29:31.869Z,24.90
2018-09-06T09:30:31.849Z,24.78
2018-09-06T09:31:31.732Z,24.90
2018-09-06T09:32:31.666Z,24.93
2018-09-06T09:33:31.594Z,24.85
2018-09-06T09:34:31.524Z,24.75
2018-09-06T09:35:31.462Z,24.59
2018-09-06T09:36:31.397Z,24.53
2018-09-06T09:37:31.316Z,24.44
2018-09-06T09:38:31.252Z,24.45
2018-09-06T09:39:31.176Z,24.41
2018-09-06T09:40:31.109Z,24.44
2018-09-06T09:41:31.043Z,24.37
2018-09-06T09:42:30.968Z,24.41
2018-09-06T09:43:30.901Z,24.41
2018-09-06T09:44:30.830Z,24.42
2018-09-06T09:45:30.761Z,24.41
2018-09-06T09:47:49.570Z,24.27
2018-09-06T09:48:49.498Z,24.23
2018-09-06T09:49:49.429Z,24.11
2018-09-06T09:50:49.358Z,24.07
2018-09-06T09:51:49.289Z,24.12
2018-09-06T09:52:49.219Z,24.02
2018-09-06T09:53:49.150Z,24.08
2018-09-06T09:54:49.080Z,23.95
2018-09-06T09:55:49.011Z,24.02
2018-09-06T09:56:48.979Z,23.87
2018-09-06T09:57:48.871Z,23.82
2018-09-06T09:58:48.801Z,23.85
2018-09-06T09:59:48.731Z,23.75
2018-09-06T10:00:48.663Z,23.79
2018-09-06T10:01:48.592Z,23.64
2018-09-06T10:02:48.522Z,23.58
2018-09-06T10:03:48.516Z,23.35
2018-09-06T10:04:48.381Z,23.27
2018-09-06T10:05:48.316Z,23.11
2018-09-06T10:06:48.241Z,23.00
2018-09-06T10:07:48.171Z,22.92
2018-09-06T10:08:48.102Z,22.77
2018-09-06T10:09:48.032Z,22.71
2018-09-06T10:10:48.010Z,22.65
2018-09-06T10:11:47.890Z,22.41
2018-09-06T10:12:47.819Z,22.34
2018-09-06T10:13:47.800Z,22.28
2018-09-06T10:14:47.677Z,22.07
2018-09-06T10:15:47.607Z,21.78
2018-09-06T10:16:47.537Z,21.76
2018-09-06T10:17:47.466Z,21.24
2018-09-06T10:18:47.395Z,20.96
2018-09-06T10:19:47.325Z,20.75
2018-09-06T10:20:47.254Z,20.40
2018-09-06T10:21:47.182Z,20.20
2018-09-06T10:22:47.112Z,20.09
2018-09-06T10:23:47.039Z,20.03
2018-09-06T10:24:46.969Z,20.00
2018-09-06T10:25:46.898Z,19.98
2018-09-06T10:26:46.825Z,20.00
2018-09-06T10:27:46.756Z,20.09
2018-09-06T10:28:46.683Z,20.24
2018-09-06T10:29:46.613Z,20.23
2018-09-06T10:30:46.541Z,20.28
2018-09-06T10:31:46.469Z,20.33
2018-09-06T10:32:46.398Z,20.42
2018-09-06T10:33:46.326Z,20.37
2018-09-06T10:34:46.257Z,20.43
2018-09-06T10:35:46.183Z,20.61
2018-09-06T10:36:46.113Z,20.71
2018-09-06T10:37:46.043Z,20.84
2018-09-06T10:38:45.969Z,20.96
2018-09-06T10:39:45.898Z,20.98
2018-09-06T10:40:45.952Z,21.16
2018-09-06T10:41:45.759Z,21.16
2018-09-06T10:42:45.684Z,21.16
2018-09-06T10:43:45.613Z,21.12
2018-09-06T10:44:45.542Z,21.23
2018-09-06T10:45:45.471Z,21.30
2018-09-06T10:46:45.400Z,21.27
2018-09-06T10:47:45.345Z,21.04
2018-09-06T10:48:45.260Z,21.12
2018-09-06T10:49:45.188Z,21.09
2018-09-06T10:50:45.121Z,21.31
2018-09-06T10:51:45.046Z,21.38
2018-09-06T10:52:44.976Z,21.51
2018-09-06T10:53:44.907Z,21.48
2018-09-06T10:54:44.835Z,21.41
2018-09-06T10:55:44.763Z,21.38
2018-09-06T10:56:44.693Z,21.46
2018-09-06T10:57:44.623Z,21.46
2018-09-06T10:58:44.551Z,21.48
2018-09-06T10:59:44.480Z,21.64
2018-09-06T11:00:44.486Z,21.91
2018-09-06T11:01:44.339Z,22.07
2018-09-06T11:02:44.269Z,22.31
2018-09-06T11:03:44.197Z,22.54
2018-09-06T11:04:44.127Z,22.69
2018-09-06T11:05:44.059Z,22.81
2018-09-06T11:06:43.986Z,23.18
2018-09-06T11:07:43.917Z,23.50
2018-09-06T11:08:43.848Z,23.82
2018-09-06T11:09:43.777Z,23.86
2018-09-06T11:10:43.707Z,24.19
2018-09-06T11:11:43.638Z,24.22
2018-09-06T11:12:43.568Z,24.52
2018-09-06T11:13:43.499Z,24.42
2018-09-06T11:14:43.429Z,24.71
2018-09-06T11:15:43.361Z,24.85
2018-09-06T11:16:43.290Z,24.80
2018-09-06T11:17:43.224Z,24.95
2018-09-06T11:18:43.154Z,25.22
2018-09-06T11:19:43.086Z,25.01
2018-09-06T11:20:43.017Z,25.00
2018-09-06T11:21:42.984Z,24.93
2018-09-06T11:22:43.162Z,25.22
2018-09-06T11:23:42.813Z,25.22
2018-09-06T11:24:42.744Z,25.30
2018-09-06T11:25:42.676Z,24.88
2018-09-06T11:26:42.609Z,24.82
2018-09-06T11:27:42.550Z,24.91
2018-09-06T11:28:42.472Z,25.01
2018-09-06T11:29:42.404Z,25.05
2018-09-06T11:30:42.337Z,25.17
2018-09-06T11:31:42.269Z,25.23
2018-09-06T11:32:42.200Z,25.22
2018-09-06T11:33:42.133Z,25.30
2018-09-06T11:34:42.066Z,25.19
2018-09-06T11:35:41.997Z,25.30
2018-09-06T11:36:41.930Z,25.40
2018-09-06T11:37:41.866Z,25.52
2018-09-06T11:38:41.793Z,25.70
2018-09-06T11:39:41.727Z,25.67
2018-09-06T11:40:41.659Z,25.83
2018-09-06T11:41:41.591Z,26.18
2018-09-06T11:42:41.523Z,26.52
2018-09-06T11:43:41.457Z,26.92
2018-09-06T11:44:41.390Z,26.79
2018-09-06T11:45:41.323Z,26.83
2018-09-06T11:46:41.297Z,27.01
2018-09-06T11:47:41.262Z,26.69
2018-09-06T11:48:41.123Z,26.83
2018-09-06T11:49:41.056Z,27.38
2018-09-06T11:50:40.991Z,27.50
2018-09-06T11:51:40.928Z,27.91
2018-09-06T11:52:42.278Z,28.56
2018-09-06T11:53:40.797Z,29.32
2018-09-06T11:54:40.733Z,29.56
2018-09-06T11:55:40.670Z,29.19
2018-09-06T11:56:40.606Z,29.43
2018-09-06T11:57:40.545Z,30.00
2018-09-06T11:58:40.480Z,30.14
2018-09-06T11:59:40.419Z,30.53
2018-09-06T12:00:40.357Z,30.33
2018-09-06T12:01:40.301Z,30.34
2018-09-06T12:02:40.233Z,30.11
2018-09-06T12:03:40.172Z,30.56
2018-09-06T12:04:40.113Z,30.17
2018-09-06T12:05:40.052Z,30.30
2018-09-06T12:06:41.406Z,30.75
2018-09-06T12:07:39.929Z,30.62
2018-09-06T12:08:39.872Z,31.01
2018-09-06T12:09:39.811Z,31.53
2018-09-06T12:10:39.750Z,31.27
2018-09-06T12:11:39.691Z,31.30
2018-09-06T12:12:39.630Z,31.44
2018-09-06T12:13:39.596Z,31.20
2018-09-06T12:14:39.513Z,30.99
2018-09-06T12:15:39.454Z,31.16
2018-09-06T12:16:39.395Z,30.71
2018-09-06T12:17:39.339Z,30.40
2018-09-06T12:18:39.279Z,29.89
2018-09-06T12:19:39.219Z,29.44
2018-09-06T12:20:39.161Z,29.28
2018-09-06T12:21:39.103Z,29.31
2018-09-06T12:22:39.043Z,28.94
2018-09-06T12:23:38.987Z,28.14
2018-09-06T12:24:38.925Z,28.24
2018-09-06T12:25:38.910Z,28.10
2018-09-06T12:26:38.805Z,27.95
2018-09-06T12:27:38.746Z,27.91
2018-09-06T12:28:38.690Z,27.77
2018-09-06T12:29:38.626Z,27.60
2018-09-06T12:30:38.566Z,27.23
2018-09-06T12:31:38.503Z,27.17
2018-09-06T12:32:38.445Z,26.97
2018-09-06T12:33:38.456Z,26.72
2018-09-06T12:34:38.320Z,26.40
2018-09-06T12:35:38.260Z,26.28
2018-09-06T12:36:38.198Z,26.12
2018-09-06T12:37:38.136Z,26.05
2018-09-06T12:38:38.077Z,26.25
2018-09-06T12:39:38.011Z,26.16
2018-09-06T12:40:37.949Z,26.04
2018-09-06T12:41:37.886Z,25.99
2018-09-06T12:42:37.822Z,26.07
2018-09-06T12:43:37.762Z,26.07
2018-09-06T12:44:37.696Z,26.18
2018-09-06T12:45:37.632Z,26.32
2018-09-06T12:46:37.568Z,26.57
2018-09-06T12:47:37.504Z,26.72
2018-09-06T12:48:37.440Z,27.02
2018-09-06T12:49:37.392Z,26.90
2018-09-06T12:50:37.312Z,27.12
2018-09-06T12:51:37.249Z,27.29
2018-09-06T12:52:37.185Z,27.35